Time;durP1;ratioP1;P1;durP2;ratioP2;P2;SDS_P1;SDS_P2;PMS_P1;PMS_P2;Temp;Humidity;BMP_temperature;BMP_pressure;BME280_temperature;BME280_humidity;BME280_pressure;Samples;Min_cycle;Max_cycle;Signal;HPM_P1;HPM_P2
2023/09/09 00:00:51;;;;;;;;;;;;;;;18.83;nan;100384.03;4983304;28;20387;-84
2023/09/09 00:03:16;;;;;;;;;;;;;;;18.74;nan;100391.47;5007828;28;19953;-84
2023/09/09 00:05:41;;;;;;;;;;;;;;;;;;5010113;28;19960;-84
2023/09/09 00:08:06;;;;;;;;;;;;;;;18.62;nan;100377.06;5007766;28;19983;-85
2023/09/09 00:10:35;;;;;;;;;;;;;;;18.57;nan;100379.56;4989976;28;19918;-85
2023/09/09 00:13:00;;;;;;;;;;;;;;;18.51;nan;100381.19;5005026;28;20000;-83
2023/09/09 00:15:26;;;;;;;;;;;;;;;18.44;nan;100381.19;4979339;28;20454;-83
2023/09/09 00:17:51;;;;;;;;;;;;;;;18.38;nan;100371.31;5005827;28;19947;-83
2023/09/09 00:20:16;;;;;;;;;;;;;;;18.33;nan;100368.44;5011401;28;20321;-83
2023/09/09 00:22:41;;;;;;;;;;;;;;;18.27;nan;100369.25;5004195;28;19914;-83
2023/09/09 00:25:07;;;;;;;;;;;;;;;18.22;nan;100371.72;5003643;28;19918;-83
2023/09/09 00:27:32;;;;;;;;;;;;;;;18.16;nan;100367.19;4993691;28;20368;-83
2023/09/09 00:29:57;;;;;;;;;;;;;;;18.11;nan;100369.66;4984613;28;19928;-83
2023/09/09 00:32:22;;;;;;;;;;;;;;;18.07;nan;100363.91;4987833;28;20303;-83
2023/09/09 00:34:47;;;;;;;;;;;;;;;18.01;nan;100354.84;5026476;28;19905;-84
2023/09/09 00:37:13;;;;;;;;;;;;;;;17.96;nan;100357.31;5042132;28;19921;-83
2023/09/09 00:39:38;;;;;;;;;;;;;;;;;;5027685;28;19918;-84
2023/09/09 00:42:03;;;;;;;;;;;;;;;17.88;nan;100351.34;4990323;28;19984;-84
2023/09/09 00:44:28;;;;;;;;;;;;;;;17.83;nan;100350.09;5017984;28;19949;-84
2023/09/09 00:46:54;;;;;;;;;;;;;;;17.81;nan;100354.00;4991650;28;20143;-84
2023/09/09 00:49:19;;;;;;;;;;;;;;;17.82;nan;100328.91;5018471;28;19921;-83
2023/09/09 00:51:44;;;;;;;;;;;;;;;17.85;nan;100355.22;5013156;28;19924;-84
2023/09/09 00:54:10;;;;;;;;;;;;;;;17.92;nan;100344.53;5009200;28;19913;-83
2023/09/09 00:56:35;;;;;;;;;;;;;;;17.93;nan;100351.56;5010535;28;19920;-83
2023/09/09 00:59:00;;;;;;;;;;;;;;;;;;5008033;28;19925;-83
2023/09/09 01:01:25;;;;;;;;;;;;;;;17.95;nan;100366.38;5009393;28;20267;-83
2023/09/09 01:03:53;;;;;;;;;;;;;;;17.90;nan;100362.63;5008070;28;19914;-83
2023/09/09 01:06:19;;;;;;;;;;;;;;;17.86;nan;100366.78;5019735;28;20322;-83
2023/09/09 01:08:44;;;;;;;;;;;;;;;17.86;nan;100340.84;5006673;28;19917;-83
2023/09/09 01:11:09;;;;;;;;;;;;;;;17.88;nan;100356.69;5010967;28;19918;-83
2023/09/09 01:13:34;;;;;;;;;;;;;;;17.90;nan;100357.28;5012812;28;20390;-83
2023/09/09 01:16:00;;;;;;;;;;;;;;;17.85;nan;100355.22;5006437;28;19914;-83
2023/09/09 01:18:25;;;;;;;;;;;;;;;17.81;nan;100348.66;5011253;28;19918;-86
2023/09/09 01:20:56;;;;;;;;;;;;;;;17.76;nan;100356.44;5010847;28;20326;-84
2023/09/09 01:23:22;;;;;;;;;;;;;;;17.70;nan;100357.22;5007254;28;19917;-85
2023/09/09 01:25:47;;;;;;;;;;;;;;;17.66;nan;100361.34;5006656;28;19914;-85
2023/09/09 01:28:12;;;;;;;;;;;;;;;17.61;nan;100365.47;5010252;28;19944;-85
2023/09/09 01:30:37;;;;;;;;;;;;;;;17.59;nan;100367.50;5011745;28;19936;-84
2023/09/09 01:33:02;;;;;;;;;;;;;;;17.59;nan;100366.66;5009499;28;19972;-85
2023/09/09 01:35:27;;;;;;;;;;;;;;;17.58;nan;100348.97;5012083;28;19917;-86
2023/09/09 01:37:53;;;;;;;;;;;;;;;17.63;nan;100362.56;5005483;28;19929;-86
2023/09/09 01:40:18;;;;;;;;;;;;;;;17.66;nan;100366.69;5004889;28;20294;-87
2023/09/09 01:42:47;;;;;;;;;;;;;;;17.67;nan;100373.69;5007474;28;19929;-84
2023/09/09 01:45:12;;;;;;;;;;;;;;;17.63;nan;100363.38;5010767;28;19918;-87
2023/09/09 01:47:37;;;;;;;;;;;;;;;17.63;nan;100358.03;5013103;28;19921;-85
2023/09/09 01:50:03;;;;;;;;;;;;;;;17.65;nan;100370.41;5000260;28;19928;-84
2023/09/09 01:52:28;;;;;;;;;;;;;;;17.63;nan;100368.72;4988952;28;19937;-85
2023/09/09 01:54:53;;;;;;;;;;;;;;;17.60;nan;100362.97;5015369;28;19973;-85
2023/09/09 01:57:19;;;;;;;;;;;;;;;17.55;nan;100371.59;5016815;28;19925;-85
2023/09/09 01:59:44;;;;;;;;;;;;;;;17.46;nan;100358.63;5011522;28;20382;-85
2023/09/09 02:02:10;;;;;;;;;;;;;;;17.39;nan;100370.09;5000106;28;19914;-85
2023/09/09 02:04:35;;;;;;;;;;;;;;;17.35;nan;100370.69;5008797;28;20008;-86
2023/09/09 02:07:00;;;;;;;;;;;;;;;17.32;nan;100365.75;5016348;28;19948;-86
2023/09/09 02:09:25;;;;;;;;;;;;;;;17.27;nan;100357.53;4987524;28;19981;-85
2023/09/09 02:11:50;;;;;;;;;;;;;;;17.19;nan;100359.34;5007845;28;19917;-85
2023/09/09 02:14:15;;;;;;;;;;;;;;;17.13;nan;100360.13;4995187;28;19921;-86
2023/09/09 02:16:43;;;;;;;;;;;;;;;17.09;nan;100361.56;5015447;28;19929;-84
2023/09/09 02:19:09;;;;;;;;;;;;;;;17.04;nan;100358.66;5013868;28;20194;-85
2023/09/09 02:21:34;;;;;;;;;;;;;;;17.01;nan;100350.22;5014873;28;19975;-84
2023/09/09 02:23:59;;;;;;;;;;;;;;;16.97;nan;100358.63;4986113;28;20437;-85
2023/09/09 02:26:24;;;;;;;;;;;;;;;16.96;nan;100356.97;5020172;28;19929;-85
2023/09/09 02:28:49;;;;;;;;;;;;;;;16.94;nan;100353.66;5017733;28;20341;-85
2023/09/09 02:31:15;;;;;;;;;;;;;;;16.94;nan;100358.19;4990751;28;19928;-84
2023/09/09 02:33:40;;;;;;;;;;;;;;;16.89;nan;100349.94;4994405;28;19937;-85
2023/09/09 02:36:06;;;;;;;;;;;;;;;16.83;nan;100340.88;5009851;28;19917;-86
2023/09/09 02:38:31;;;;;;;;;;;;;;;16.77;nan;100347.78;5022787;28;19995;-85
2023/09/09 02:40:57;;;;;;;;;;;;;;;16.72;nan;100344.06;4991109;28;19913;-85
2023/09/09 02:43:22;;;;;;;;;;;;;;;16.69;nan;100349.81;5001535;28;20291;-86
2023/09/09 02:45:47;;;;;;;;;;;;;;;16.65;nan;100346.69;4991004;28;19995;-84
2023/09/09 02:48:12;;;;;;;;;;;;;;;16.63;nan;100350.59;5013326;28;19918;-85
2023/09/09 02:50:38;;;;;;;;;;;;;;;16.59;nan;100360.84;5015040;28;19913;-85
2023/09/09 02:53:03;;;;;;;;;;;;;;;16.55;nan;100360.41;5014489;28;19921;-85
2023/09/09 02:55:28;;;;;;;;;;;;;;;16.50;nan;100362.00;5012458;28;19996;-86
2023/09/09 02:57:54;;;;;;;;;;;;;;;16.46;nan;100360.75;4993807;28;19982;-84
2023/09/09 03:00:19;;;;;;;;;;;;;;;16.42;nan;100359.47;5012642;28;20531;-84
2023/09/09 03:02:44;;;;;;;;;;;;;;;16.39;nan;100366.03;5027774;28;19918;-85
2023/09/09 03:05:10;;;;;;;;;;;;;;;16.37;nan;100362.72;4995897;28;19914;-84
2023/09/09 03:07:35;;;;;;;;;;;;;;;16.35;nan;100354.94;5012144;28;19921;-84
2023/09/09 03:10:00;;;;;;;;;;;;;;;16.33;nan;100362.28;5011961;28;19940;-84
2023/09/09 03:12:26;;;;;;;;;;;;;;;16.31;nan;100359.00;5008696;28;19914;-85
2023/09/09 03:14:51;;;;;;;;;;;;;;;16.28;nan;100367.38;5008505;28;20005;-85
2023/09/09 03:17:18;;;;;;;;;;;;;;;16.27;nan;100351.56;4993923;28;19913;-85
2023/09/09 03:19:43;;;;;;;;;;;;;;;16.28;nan;100348.72;5013791;28;19928;-84
2023/09/09 03:22:08;;;;;;;;;;;;;;;16.28;nan;100348.72;5012857;28;20000;-84
2023/09/09 03:24:34;;;;;;;;;;;;;;;16.27;nan;100357.72;5014185;28;19944;-83
2023/09/09 03:26:59;;;;;;;;;;;;;;;16.24;nan;100362.63;5029969;28;19949;-85
2023/09/09 03:29:24;;;;;;;;;;;;;;;16.21;nan;100357.66;5006756;28;19921;-84
2023/09/09 03:31:49;;;;;;;;;;;;;;;16.19;nan;100354.38;4983277;28;19920;-85
2023/09/09 03:34:14;;;;;;;;;;;;;;;16.17;nan;100346.56;5011572;28;20004;-84
2023/09/09 03:36:40;;;;;;;;;;;;;;;16.14;nan;100333.63;4996403;28;19913;-84
2023/09/09 03:39:05;;;;;;;;;;;;;;;16.12;nan;100351.66;4988655;28;20234;-85
2023/09/09 03:41:31;;;;;;;;;;;;;;;16.09;nan;100354.72;4994250;28;20303;-85
2023/09/09 03:43:56;;;;;;;;;;;;;;;16.04;nan;100347.28;5006447;28;19967;-84
2023/09/09 03:46:21;;;;;;;;;;;;;;;16.01;nan;100352.16;5013080;28;19944;-86
2023/09/09 03:48:46;;;;;;;;;;;;;;;15.99;nan;100344.34;5005998;28;19925;-84
2023/09/09 03:51:12;;;;;;;;;;;;;;;15.96;nan;100343.91;5005104;28;19940;-87
2023/09/09 03:53:37;;;;;;;;;;;;;;;15.92;nan;100359.47;5010967;28;19924;-85
2023/09/09 03:56:03;;;;;;;;;;;;;;;15.90;nan;100364.19;5012499;28;19921;-85
2023/09/09 03:58:28;;;;;;;;;;;;;;;15.85;nan;100348.75;5006026;28;20004;-87
2023/09/09 04:01:12;;;;;;;;;;;;;;;15.84;nan;100347.09;5012842;28;19936;-85
2023/09/09 04:03:38;;;;;;;;;;;;;;;15.81;nan;100350.13;4995009;28;19917;-85
2023/09/09 04:06:04;;;;;;;;;;;;;;;15.81;nan;100341.31;5012445;28;20366;-84
2023/09/09 04:08:30;;;;;;;;;;;;;;;15.81;nan;100357.31;5012619;28;19978;-84
2023/09/09 04:10:55;;;;;;;;;;;;;;;;;;5022679;28;19917;-85
2023/09/09 04:13:20;;;;;;;;;;;;;;;15.79;nan;100373.50;4996394;28;19917;-89
2023/09/09 04:15:45;;;;;;;;;;;;;;;15.76;nan;100371.22;4989418;28;19925;-84
2023/09/09 04:18:12;;;;;;;;;;;;;;;15.75;nan;100358.88;4995748;28;20351;-85
2023/09/09 04:20:38;;;;;;;;;;;;;;;15.74;nan;100373.25;5021688;28;20393;-85
2023/09/09 04:23:03;;;;;;;;;;;;;;;15.69;nan;100365.78;5006735;28;19917;-85
2023/09/09 04:25:28;;;;;;;;;;;;;;;15.68;nan;100352.63;5007490;28;20306;-85
2023/09/09 04:27:53;;;;;;;;;;;;;;;15.66;nan;100365.31;5028397;28;19949;-85
2023/09/09 04:30:18;;;;;;;;;;;;;;;;;;5013049;28;20437;-86
2023/09/09 04:32:43;;;;;;;;;;;;;;;15.60;nan;100356.25;4990858;28;19953;-85
2023/09/09 04:35:08;;;;;;;;;;;;;;;15.59;nan;100375.94;4983384;28;19957;-86
2023/09/09 04:37:34;;;;;;;;;;;;;;;15.58;nan;100368.13;5011502;28;19913;-85
2023/09/09 04:39:59;;;;;;;;;;;;;;;15.56;nan;100370.94;5011749;28;19971;-85
2023/09/09 04:42:24;;;;;;;;;;;;;;;15.55;nan;100363.16;4993977;28;19913;-85
2023/09/09 04:44:49;;;;;;;;;;;;;;;15.55;nan;100363.16;5013294;28;19940;-85
2023/09/09 04:47:14;;;;;;;;;;;;;;;15.54;nan;100366.81;5018908;28;19917;-86
2023/09/09 04:49:39;;;;;;;;;;;;;;;;;;5000082;28;19924;-86
2023/09/09 04:52:05;;;;;;;;;;;;;;;15.52;nan;100364.38;4990968;28;20322;-85
2023/09/09 04:54:30;;;;;;;;;;;;;;;15.50;nan;100367.22;5015256;28;19924;-86
2023/09/09 04:56:55;;;;;;;;;;;;;;;15.48;nan;100374.56;4990647;28;20322;-84
2023/09/09 04:59:20;;;;;;;;;;;;;;;15.51;nan;100363.53;5003592;28;19926;-84
2023/09/09 05:01:45;;;;;;;;;;;;;;;15.53;nan;100363.34;5011129;28;20436;-83
2023/09/09 05:04:11;;;;;;;;;;;;;;;15.55;nan;100357.84;5009667;28;19960;-83
2023/09/09 05:06:36;;;;;;;;;;;;;;;;;;5006087;28;19917;-83
2023/09/09 05:09:01;;;;;;;;;;;;;;;15.54;nan;100373.00;5005260;28;20008;-84
2023/09/09 05:11:26;;;;;;;;;;;;;;;15.56;nan;100370.94;5010606;28;19917;-83
2023/09/09 05:13:51;;;;;;;;;;;;;;;15.57;nan;100377.97;5006027;28;19917;-84
2023/09/09 05:16:16;;;;;;;;;;;;;;;15.58;nan;100378.78;5005966;28;20405;-83
2023/09/09 05:18:42;;;;;;;;;;;;;;;;;;5005590;28;19918;-84
2023/09/09 05:21:07;;;;;;;;;;;;;;;15.61;nan;100395.22;4988397;28;19937;-84
2023/09/09 05:23:33;;;;;;;;;;;;;;;15.65;nan;100375.16;4993057;28;19928;-84
2023/09/09 05:25:58;;;;;;;;;;;;;;;15.69;nan;100394.28;5020902;28;19917;-86
2023/09/09 05:28:23;;;;;;;;;;;;;;;15.73;nan;100387.59;5015927;28;19928;-88
2023/09/09 05:30:48;;;;;;;;;;;;;;;15.77;nan;100394.19;5014490;28;19917;-87
2023/09/09 05:33:13;;;;;;;;;;;;;;;15.83;nan;100387.28;4993924;28;19944;-87
2023/09/09 05:35:38;;;;;;;;;;;;;;;15.91;nan;100400.47;4997441;28;19925;-86
2023/09/09 05:38:04;;;;;;;;;;;;;;;16.00;nan;100403.88;5013461;28;20364;-85
2023/09/09 05:40:29;;;;;;;;;;;;;;;16.08;nan;100395.72;4995482;28;19933;-86
2023/09/09 05:42:54;;;;;;;;;;;;;;;16.17;nan;100399.91;4990285;28;19937;-87
2023/09/09 05:45:19;;;;;;;;;;;;;;;16.23;nan;100387.63;4992184;28;20727;-86
2023/09/09 05:47:45;;;;;;;;;;;;;;;16.30;nan;100394.72;4990493;28;20283;-86
2023/09/09 05:50:11;;;;;;;;;;;;;;;16.39;nan;100410.56;5002086;28;20023;-85
2023/09/09 05:52:36;;;;;;;;;;;;;;;16.56;nan;100406.59;4986682;28;19921;-85
2023/09/09 05:55:02;;;;;;;;;;;;;;;16.82;nan;100407.84;5012788;28;19936;-85
2023/09/09 05:57:27;;;;;;;;;;;;;;;17.20;nan;100400.25;5016379;28;20390;-84
2023/09/09 05:59:52;;;;;;;;;;;;;;;17.67;nan;100427.19;5032865;28;19988;-84
2023/09/09 06:02:17;;;;;;;;;;;;;;;18.26;nan;100437.22;4996012;28;19918;-85
2023/09/09 06:04:43;;;;;;;;;;;;;;;18.78;nan;100450.81;5015914;28;19928;-85
2023/09/09 06:07:08;;;;;;;;;;;;;;;19.27;nan;100450.31;4992173;28;19928;-86
2023/09/09 06:09:33;;;;;;;;;;;;;;;;;;4997188;28;19922;-87
2023/09/09 06:11:58;;;;;;;;;;;;;;;20.37;nan;100470.84;5011392;28;19917;-86
2023/09/09 06:14:23;;;;;;;;;;;;;;;20.96;nan;100477.63;5019437;28;19917;-88
2023/09/09 06:16:48;;;;;;;;;;;;;;;21.38;nan;100475.13;4994407;28;19913;-85
2023/09/09 06:19:14;;;;;;;;;;;;;;;21.85;nan;100499.63;5031162;28;20345;-88
2023/09/09 06:21:39;;;;;;;;;;;;;;;22.34;nan;100499.63;5013970;28;19968;-85
2023/09/09 06:24:06;;;;;;;;;;;;;;;22.84;nan;100503.81;5007633;28;19913;-85
2023/09/09 06:26:33;;;;;;;;;;;;;;;23.29;nan;100505.94;5017808;28;19917;-87
2023/09/09 06:28:59;;;;;;;;;;;;;;;23.64;nan;100500.47;4991408;28;19935;-83
2023/09/09 06:31:24;;;;;;;;;;;;;;;23.98;nan;100510.59;5025712;28;20370;-87
2023/09/09 06:33:49;;;;;;;;;;;;;;;24.32;nan;100509.63;5013811;28;19923;-85
2023/09/09 06:36:16;;;;;;;;;;;;;;;24.66;nan;100523.19;5009170;28;19952;-86
2023/09/09 06:38:41;;;;;;;;;;;;;;;24.95;nan;100509.59;5009762;28;20004;-86
2023/09/09 06:41:07;;;;;;;;;;;;;;;25.19;nan;100494.00;5003380;28;19983;-89
2023/09/09 06:43:32;;;;;;;;;;;;;;;25.51;nan;100520.41;5015206;28;19944;-87
2023/09/09 06:45:59;;;;;;;;;;;;;;;25.76;nan;100530.75;5011952;28;19918;-87
2023/09/09 06:48:24;;;;;;;;;;;;;;;26.05;nan;100528.66;4975866;28;19925;-88
2023/09/09 06:50:50;;;;;;;;;;;;;;;26.26;nan;100533.22;4996786;28;19932;-86
2023/09/09 06:53:15;;;;;;;;;;;;;;;26.47;nan;100531.53;5008728;28;20182;-86
2023/09/09 06:55:43;;;;;;;;;;;;;;;26.43;nan;100530.41;5001170;28;20391;-86
2023/09/09 06:58:08;;;;;;;;;;;;;;;26.44;nan;100531.22;5004687;28;19917;-86
2023/09/09 07:00:34;;;;;;;;;;;;;;;26.53;nan;100534.28;4992594;28;19922;-84
2023/09/09 07:02:59;;;;;;;;;;;;;;;;;;5008209;28;19918;-86
2023/09/09 07:05:24;;;;;;;;;;;;;;;27.14;nan;100539.41;4990347;28;19949;-88
2023/09/09 07:07:49;;;;;;;;;;;;;;;27.51;nan;100539.38;4981724;28;19918;-86
2023/09/09 07:10:15;;;;;;;;;;;;;;;27.89;nan;100540.91;5004687;28;19917;-84
2023/09/09 07:12:42;;;;;;;;;;;;;;;28.05;nan;100543.66;4988391;28;19921;-83
2023/09/09 07:15:07;;;;;;;;;;;;;;;28.16;nan;100551.56;4996719;28;19920;-84
2023/09/09 07:17:33;;;;;;;;;;;;;;;28.41;nan;100541.00;5014044;28;20012;-84
2023/09/09 07:19:58;;;;;;;;;;;;;;;28.72;nan;100550.03;5012600;28;20365;-85
2023/09/09 07:22:23;;;;;;;;;;;;;;;28.97;nan;100558.19;4991640;28;20004;-88
2023/09/09 07:24:48;;;;;;;;;;;;;;;29.19;nan;100562.56;5004467;28;19913;-84
2023/09/09 07:27:14;;;;;;;;;;;;;;;29.30;nan;100564.16;5013475;28;19936;-84
2023/09/09 07:29:39;;;;;;;;;;;;;;;29.48;nan;100570.09;5011116;28;19953;-84
2023/09/09 07:32:05;;;;;;;;;;;;;;;29.57;nan;100563.00;5008304;28;19979;-85
2023/09/09 07:34:30;;;;;;;;;;;;;;;29.48;nan;100565.47;5013418;28;19913;-85
2023/09/09 07:36:55;;;;;;;;;;;;;;;29.29;nan;100545.38;5013639;28;19917;-84
2023/09/09 07:39:20;;;;;;;;;;;;;;;29.09;nan;100563.38;5003843;28;19925;-83
2023/09/09 07:41:46;;;;;;;;;;;;;;;29.12;nan;100562.03;5004635;28;19918;-85
2023/09/09 07:44:11;;;;;;;;;;;;;;;29.38;nan;100566.31;5027506;28;20248;-84
2023/09/09 07:46:36;;;;;;;;;;;;;;;29.30;nan;100563.34;4994974;28;20306;-83
2023/09/09 07:49:01;;;;;;;;;;;;;;;29.32;nan;100551.09;5026876;28;20012;-83
2023/09/09 07:51:26;;;;;;;;;;;;;;;29.48;nan;100562.75;4995313;28;19925;-86
2023/09/09 07:53:52;;;;;;;;;;;;;;;29.83;nan;100561.81;4986171;28;19918;-84
2023/09/09 07:56:17;;;;;;;;;;;;;;;30.23;nan;100567.34;5000616;28;19917;-84
2023/09/09 07:58:42;;;;;;;;;;;;;;;30.09;nan;100569.88;4991059;28;19922;-85
2023/09/09 08:01:08;;;;;;;;;;;;;;;30.30;nan;100570.63;4990754;28;20454;-85
2023/09/09 08:03:34;;;;;;;;;;;;;;;30.53;nan;100574.53;5005410;28;19932;-84
2023/09/09 08:06:06;;;;;;;;;;;;;;;30.80;nan;100578.72;5028026;28;19920;-86
2023/09/09 08:08:31;;;;;;;;;;;;;;;31.22;nan;100582.72;4996740;28;19920;-86
2023/09/09 08:10:56;;;;;;;;;;;;;;;31.40;nan;100576.53;5007295;28;19921;-84
2023/09/09 08:13:22;;;;;;;;;;;;;;;31.52;nan;100557.00;5018597;28;19914;-84
2023/09/09 08:15:47;;;;;;;;;;;;;;;31.83;nan;100575.78;4998275;28;20330;-84
2023/09/09 08:18:13;;;;;;;;;;;;;;;32.06;nan;100579.59;4996968;28;19923;-84
2023/09/09 08:20:38;;;;;;;;;;;;;;;32.23;nan;100573.63;5011666;28;19925;-85
2023/09/09 08:23:04;;;;;;;;;;;;;;;32.20;nan;100585.16;5013036;28;19914;-84
2023/09/09 08:25:32;;;;;;;;;;;;;;;32.52;nan;100576.22;4995202;28;19927;-84
2023/09/09 08:27:59;;;;;;;;;;;;;;;32.75;nan;100577.19;5007367;28;19917;-84
2023/09/09 08:30:24;;;;;;;;;;;;;;;33.00;nan;100574.03;5008214;28;19918;-84
2023/09/09 08:32:49;;;;;;;;;;;;;;;33.42;nan;100574.94;5026749;28;20389;-86
2023/09/09 08:35:15;;;;;;;;;;;;;;;33.62;nan;100579.22;5011575;28;20432;-84
2023/09/09 08:37:40;;;;;;;;;;;;;;;33.66;nan;100576.69;5010416;28;19913;-84
2023/09/09 08:40:05;;;;;;;;;;;;;;;33.80;nan;100574.75;5008836;28;19921;-84
2023/09/09 08:42:31;;;;;;;;;;;;;;;33.42;nan;100582.34;5009633;28;20371;-84
2023/09/09 08:45:15;;;;;;;;;;;;;;;33.88;nan;100586.13;4999069;28;19917;-85
2023/09/09 08:47:41;;;;;;;;;;;;;;;34.03;nan;100583.03;5000887;28;20385;-85
2023/09/09 08:50:06;;;;;;;;;;;;;;;34.50;nan;100588.31;5013226;28;19917;-86
2023/09/09 08:52:32;;;;;;;;;;;;;;;34.95;nan;100583.63;5013420;28;19959;-84
2023/09/09 08:54:57;;;;;;;;;;;;;;;35.05;nan;100586.13;5010575;28;20022;-84
2023/09/09 08:57:23;;;;;;;;;;;;;;;35.19;nan;100585.25;5013027;28;19932;-85
2023/09/09 08:59:48;;;;;;;;;;;;;;;35.34;nan;100590.31;4992547;28;19929;-86
2023/09/09 09:02:15;;;;;;;;;;;;;;;35.86;nan;100586.97;5008030;28;20290;-84
2023/09/09 09:04:40;;;;;;;;;;;;;;;36.39;nan;100585.88;5010152;28;19922;-84
2023/09/09 09:07:05;;;;;;;;;;;;;;;36.87;nan;100587.63;5009068;28;19924;-86
2023/09/09 09:09:31;;;;;;;;;;;;;;;37.35;nan;100588.47;5008856;28;20012;-85
2023/09/09 09:12:00;;;;;;;;;;;;;;;37.55;nan;100589.72;5001687;28;19913;-85
2023/09/09 09:14:25;;;;;;;;;;;;;;;37.87;nan;100584.66;4993995;28;19920;-85
2023/09/09 09:16:50;;;;;;;;;;;;;;;37.70;nan;100589.13;4991940;28;19913;-85
2023/09/09 09:19:24;;;;;;;;;;;;;;;37.87;nan;100584.66;5009079;28;19924;-84
2023/09/09 09:21:49;;;;;;;;;;;;;;;37.72;nan;100588.81;5009830;28;19921;-84
2023/09/09 09:24:15;;;;;;;;;;;;;;;37.96;nan;100588.16;5005721;28;19917;-85
2023/09/09 09:26:40;;;;;;;;;;;;;;;38.27;nan;100581.47;5004262;28;19918;-85
2023/09/09 09:29:05;;;;;;;;;;;;;;;38.55;nan;100577.00;5005496;28;20020;-86
2023/09/09 09:31:30;;;;;;;;;;;;;;;39.01;nan;100582.56;5010140;28;19917;-84
2023/09/09 09:33:56;;;;;;;;;;;;;;;39.49;nan;100581.00;5012335;28;19915;-84
2023/09/09 09:36:22;;;;;;;;;;;;;;;39.50;nan;100577.09;5013179;28;20307;-84
2023/09/09 09:38:50;;;;;;;;;;;;;;;39.41;nan;100579.97;5014047;28;19913;-84
2023/09/09 09:41:16;;;;;;;;;;;;;;;39.40;nan;100578.38;5015242;28;19963;-85
2023/09/09 09:43:41;;;;;;;;;;;;;;;39.64;nan;100583.09;5006950;28;20321;-86
2023/09/09 09:46:13;;;;;;;;;;;;;;;39.85;nan;100579.38;5006770;28;19925;-84
2023/09/09 09:48:39;;;;;;;;;;;;;;;39.71;nan;100577.78;4998104;28;19922;-84
2023/09/09 09:51:04;;;;;;;;;;;;;;;39.71;nan;100571.41;5015219;28;20448;-85
2023/09/09 09:53:29;;;;;;;;;;;;;;;40.18;nan;100575.59;5013203;28;19913;-84
2023/09/09 09:55:55;;;;;;;;;;;;;;;40.40;nan;100568.72;5011832;28;19917;-84
2023/09/09 09:58:21;;;;;;;;;;;;;;;40.57;nan;100578.69;5013799;28;20095;-83
2023/09/09 10:00:47;;;;;;;;;;;;;;;40.84;nan;100572.34;5004077;28;20021;-83
2023/09/09 10:03:13;;;;;;;;;;;;;;;40.98;nan;100571.91;4991545;28;20382;-84
2023/09/09 10:05:43;;;;;;;;;;;;;;;40.88;nan;100567.69;5015485;28;20382;-84
2023/09/09 10:08:17;;;;;;;;;;;;;;;40.90;nan;100570.09;5014393;28;19948;-83
2023/09/09 10:10:48;;;;;;;;;;;;;;;40.35;nan;100572.56;4997640;28;19917;-84
2023/09/09 10:13:18;;;;;;;;;;;;;;;40.50;nan;100562.66;5012287;28;20488;-84
2023/09/09 10:15:43;;;;;;;;;;;;;;;40.67;nan;100561.56;4987374;28;19968;-85
2023/09/09 10:18:11;;;;;;;;;;;;;;;40.64;nan;100565.84;5005902;28;19973;-85
2023/09/09 10:20:38;;;;;;;;;;;;;;;40.94;nan;100562.69;5012662;28;20389;-85
2023/09/09 10:23:04;;;;;;;;;;;;;;;41.15;nan;100563.25;5012943;28;19924;-85
2023/09/09 10:25:30;;;;;;;;;;;;;;;41.55;nan;100565.03;5013469;28;19914;-85
2023/09/09 10:27:55;;;;;;;;;;;;;;;41.80;nan;100560.00;5027612;28;19927;-86
2023/09/09 10:30:21;;;;;;;;;;;;;;;41.83;nan;100555.69;5010364;28;19925;-86
2023/09/09 10:32:47;;;;;;;;;;;;;;;42.20;nan;100558.09;5004309;28;20419;-86
2023/09/09 10:35:14;;;;;;;;;;;;;;;42.40;nan;100543.03;5013045;28;19917;-86
2023/09/09 10:37:39;;;;;;;;;;;;;;;42.65;nan;100556.59;4995508;28;19920;-86
2023/09/09 10:40:05;;;;;;;;;;;;;;;42.55;nan;100546.06;5012798;28;19922;-86
2023/09/09 10:42:31;;;;;;;;;;;;;;;42.60;nan;100543.00;5011198;28;19913;-85
2023/09/09 10:45:16;;;;;;;;;;;;;;;42.38;nan;100562.06;5004444;28;19925;-86
2023/09/09 10:47:55;;;;;;;;;;;;;;;42.42;nan;100548.22;4978925;28;20395;-84
2023/09/09 10:50:21;;;;;;;;;;;;;;;41.94;nan;100551.19;4994762;28;21262;-84
2023/09/09 10:52:47;;;;;;;0.00;0.00;;;;;;;41.12;nan;100550.09;5010850;28;19913;-85
2023/09/09 10:55:13;;;;;;;0.00;0.00;;;;;;;41.05;nan;100540.75;5000088;28;20029;-84
2023/09/09 10:57:38;;;;;;;0.00;0.00;;;;;;;41.36;nan;100560.19;4995573;28;20033;-85
2023/09/09 11:00:10;;;;;;;0.00;0.00;;;;;;;41.75;nan;100543.63;5011320;28;20065;-85
2023/09/09 11:02:46;;;;;;;0.00;0.00;;;;;;;41.62;nan;100541.34;4994532;28;20034;-86
2023/09/09 11:05:13;;;;;;;0.00;0.00;;;;;;;41.54;nan;100543.16;5008625;28;20547;-84
2023/09/09 11:07:43;;;;;;;0.00;0.00;;;;;;;41.60;nan;100558.38;4991854;28;20041;-85
2023/09/09 11:10:09;;;;;;;0.00;0.00;;;;;;;42.04;nan;100543.47;4994313;28;20045;-85
2023/09/09 11:12:34;;;;;;;0.00;0.00;;;;;;;42.67;nan;100565.38;4996400;28;20503;-86
2023/09/09 11:15:09;;;;;;;0.00;0.00;;;;;;;43.08;nan;100548.22;4979445;28;20395;-86
2023/09/09 11:17:36;;;;;;;0.00;0.00;;;;;;;44.02;nan;100549.22;5003640;28;20042;-85
2023/09/09 11:20:03;;;;;;;0.00;0.00;;;;;;;43.84;nan;100568.50;4994174;28;20034;-84
2023/09/09 11:22:29;;;;;;;0.00;0.00;;;;;;;42.93;nan;100548.00;4986082;28;20492;-87
2023/09/09 11:24:57;;;;;;;0.00;0.00;;;;;;;42.69;nan;100545.53;4993320;28;20045;-85
2023/09/09 11:27:24;;;;;;;0.00;0.00;;;;;;;42.66;nan;100585.22;5003634;28;20045;-85
2023/09/09 11:29:51;;;;;;;0.00;0.00;;;;;;;42.95;nan;100559.53;5011944;28;20030;-84
2023/09/09 11:32:24;;;;;;;0.00;0.00;;;;;;;42.88;nan;100536.34;4993950;28;20132;-84
2023/09/09 11:34:52;;;;;;;0.00;0.00;;;;;;;43.13;nan;100559.84;5007345;28;20491;-84
2023/09/09 11:37:17;;;;;;;0.00;0.00;;;;;;;43.06;nan;100543.03;4990397;28;20407;-84
2023/09/09 11:39:44;;;;;;;0.00;0.00;;;;;;;;;;5006934;28;20030;-87
2023/09/09 11:42:10;;;;;;;0.00;0.00;;;;;;;43.11;nan;100545.47;4995004;28;20265;-84
2023/09/09 11:44:42;;;;;;;0.00;0.00;;;;;;;42.23;nan;100590.69;5009939;28;20533;-85
2023/09/09 11:47:09;;;;;;;0.00;0.00;;;;;;;42.04;nan;100532.34;4985016;28;20499;-84
2023/09/09 11:49:35;;;;;;;0.00;0.00;;;;;;;;;;4985893;28;20148;-85
2023/09/09 11:52:00;;;;;;;0.00;0.00;;;;;;;;;;4988241;28;20419;-86
2023/09/09 11:54:27;;;;;;;0.00;0.00;;;;;;;40.24;nan;100527.94;4985852;28;20393;-86
2023/09/09 11:57:05;;;;;;;0.00;0.00;;;;;;;39.17;nan;100530.16;4994763;28;20085;-85
2023/09/09 11:59:30;;;;;;;0.00;0.00;;;;;;;;;;5011265;28;20129;-85
2023/09/09 12:01:55;;;;;;;0.00;0.00;;;;;;;;;;4999967;28;20539;-86
2023/09/09 12:04:20;;;;;;;0.00;0.00;;;;;;;;;;4997954;28;20426;-85
2023/09/09 12:06:47;;;;;;;0.00;0.00;;;;;;;;;;4981420;28;20034;-85
2023/09/09 12:09:13;;;;;;;0.00;0.00;;;;;;;37.24;nan;100512.78;4994479;28;20962;-85
2023/09/09 12:11:40;;;;;;;0.00;0.00;;;;;;;36.18;nan;100511.38;5001529;28;20038;-86
2023/09/09 12:14:06;;;;;;;0.00;0.00;;;;;;;35.39;nan;100510.44;5007617;28;20034;-84
2023/09/09 12:16:33;;;;;;;0.00;0.00;;;;;;;34.73;nan;100513.06;4992171;28;20523;-84
2023/09/09 12:18:58;;;;;;;0.00;0.00;;;;;;;34.44;nan;100497.84;4996685;28;20073;-87
2023/09/09 12:21:23;;;;;;;0.00;0.00;;;;;;;33.82;nan;100495.72;4984859;28;20443;-85
2023/09/09 12:23:49;;;;;;;0.00;0.00;;;;;;;33.77;nan;100497.75;4984052;28;20226;-84
2023/09/09 12:26:16;;;;;;;0.00;0.00;;;;;;;33.02;nan;100493.50;5003357;28;20045;-85
2023/09/09 12:28:43;;;;;;;0.00;0.00;;;;;;;32.42;nan;100494.22;5010446;28;20113;-83
2023/09/09 12:31:13;;;;;;;0.00;0.00;;;;;;;32.58;nan;100495.63;5002217;28;20042;-83
2023/09/09 12:33:39;;;;;;;0.00;0.00;;;;;;;;;;4985505;28;20029;-83
2023/09/09 12:36:06;;;;;;;0.00;0.00;;;;;;;32.33;nan;100483.16;5010590;28;20046;-84
2023/09/09 12:38:38;;;;;;;0.00;0.00;;;;;;;32.07;nan;100480.03;4986684;28;20034;-84
2023/09/09 12:41:05;;;;;;;0.00;0.00;;;;;;;31.60;nan;100488.03;4976489;28;20097;-83
2023/09/09 12:43:31;;;;;;;0.00;0.00;;;;;;;31.63;nan;100481.16;4986920;28;20038;-83
2023/09/09 12:46:13;;;;;;;0.00;0.00;;;;;;;31.69;nan;100490.91;5009347;28;20034;-84
2023/09/09 12:48:55;;;;;;;0.00;0.00;;;;;;;31.51;nan;100490.59;4992292;28;20060;-82